Time;durP1;ratioP1;P1;durP2;ratioP2;P2;SDS_P1;SDS_P2;PMS_P1;PMS_P2;Temp;Humidity;BMP_temperature;BMP_pressure;BME280_temperature;BME280_humidity;BME280_pressure;Samples;Min_cycle;Max_cycle;Signal;HPM_P1;HPM_P2
2022/09/10 00:01:20;;;;;;;7.45;6.13;;;15.20;99.90;;;;;;4956386;29;20057;-75
2022/09/10 00:03:58;;;;;;;6.90;6.25;;;15.10;99.90;;;;;;4925344;29;20055;-75
2022/09/10 00:06:26;;;;;;;8.80;5.95;;;15.20;99.90;;;;;;4957347;29;20047;-75
2022/09/10 00:08:57;;;;;;;7.05;6.35;;;15.20;99.90;;;;;;4925283;29;20106;-75
2022/09/10 00:11:30;;;;;;;7.95;6.28;;;15.10;99.90;;;;;;4969998;28;20059;-75
2022/09/10 00:14:00;;;;;;;7.78;6.60;;;15.10;99.90;;;;;;4924947;29;20510;-75
2022/09/10 00:16:26;;;;;;;8.48;6.30;;;15.10;99.90;;;;;;4940451;29;20047;-75
2022/09/10 00:19:15;;;;;;;7.95;6.30;;;14.90;99.90;;;;;;4973126;28;20051;-75
2022/09/10 00:21:42;;;;;;;8.75;6.88;;;15.10;99.90;;;;;;4957145;29;20063;-75
2022/09/10 00:24:16;;;;;;;10.90;6.65;;;15.10;99.90;;;;;;4956555;29;20529;-75
2022/09/10 00:26:52;;;;;;;11.23;7.50;;;15.10;99.90;;;;;;4971884;28;20103;-75
2022/09/10 00:29:19;;;;;;;9.25;6.72;;;15.10;99.90;;;;;;4956098;28;20052;-75
2022/09/10 00:31:52;;;;;;;10.32;7.22;;;15.20;99.90;;;;;;4973046;28;20055;-76
2022/09/10 00:34:19;;;;;;;8.20;7.05;;;15.20;99.90;;;;;;4972888;28;20047;-74
2022/09/10 00:36:51;;;;;;;10.60;7.45;;;15.20;99.90;;;;;;4956374;28;20047;-76
2022/09/10 00:39:19;;;;;;;8.48;6.43;;;15.20;99.90;;;;;;4940449;29;20095;-75
2022/09/10 00:41:46;;;;;;;8.98;6.78;;;15.30;99.90;;;;;;4924879;29;20052;-75
2022/09/10 00:44:38;;;;;;;11.32;6.25;;;15.30;99.90;;;;;;4972821;28;20092;-75
2022/09/10 00:47:29;;;;;;;10.25;7.07;;;15.30;99.90;;;;;;4971834;28;20090;-75
2022/09/10 00:50:33;;;;;;;11.77;7.85;;;15.40;99.90;;;;;;4956324;29;20134;-75
2022/09/10 00:53:07;;;;;;;11.35;6.70;;;15.40;99.90;;;;;;4937222;29;20148;-75
2022/09/10 00:55:38;;;;;;;11.57;7.20;;;15.40;99.90;;;;;;4921044;29;20044;-75
2022/09/10 00:58:09;;;;;;;13.35;8.73;;;15.40;99.90;;;;;;4921966;29;20055;-74
2022/09/10 01:00:39;;;;;;;9.05;6.57;;;15.40;99.90;;;;;;4936605;29;20043;-76
2022/09/10 01:03:12;;;;;;;11.75;7.57;;;15.40;99.90;;;;;;4920731;29;20103;-74
2022/09/10 01:05:41;;;;;;;9.35;6.65;;;15.50;99.90;;;;;;4937342;29;20488;-75
2022/09/10 01:08:11;;;;;;;12.70;9.30;;;15.50;99.90;;;;;;4936707;29;20051;-75
2022/09/10 01:11:36;;;;;;;9.35;7.57;;;15.40;99.90;;;;;;4936881;29;20063;-76
2022/09/10 01:14:28;;;;;;;10.88;8.85;;;15.50;99.90;;;;;;4904655;29;20067;-74
2022/09/10 01:17:08;;;;;;;8.87;6.13;;;15.50;99.90;;;;;;4936747;29;20060;-75
2022/09/10 01:19:59;;;;;;;12.25;8.57;;;15.50;99.90;;;;;;4936467;29;20306;-76
2022/09/10 01:22:56;;;;;;;12.10;8.38;;;15.50;99.90;;;;;;4937336;29;20055;-76
2022/09/10 01:26:06;;;;;;;14.18;9.75;;;15.20;99.90;;;;;;4936507;29;20047;-75
2022/09/10 01:28:36;;;;;;;;;;;15.50;99.90;;;;;;4918547;29;20135;-75
2022/09/10 01:31:10;;;;;;;9.40;8.23;;;15.50;99.90;;;;;;4936216;29;19977;-74
2022/09/10 01:33:56;;;;;;;12.68;9.35;;;15.50;99.90;;;;;;4936450;29;20502;-76
2022/09/10 01:36:28;;;;;;;11.25;8.65;;;15.50;99.90;;;;;;4936190;29;20052;-76
2022/09/10 01:38:55;;;;;;;10.80;9.13;;;15.60;99.90;;;;;;4937050;29;20531;-76
2022/09/10 01:41:30;;;;;;;14.95;10.45;;;15.60;99.90;;;;;;4936251;29;20079;-75
2022/09/10 01:43:56;;;;;;;11.60;8.15;;;15.60;99.90;;;;;;4904775;29;20539;-76
2022/09/10 01:46:40;;;;;;;17.23;10.57;;;15.60;99.90;;;;;;4919732;29;20126;-75
2022/09/10 01:49:38;;;;;;;15.68;10.77;;;15.60;99.90;;;;;;4935730;29;20044;-75
2022/09/10 01:52:41;;;;;;;12.02;9.20;;;15.60;99.90;;;;;;4948394;29;20086;-76
2022/09/10 01:55:42;;;;;;;15.55;11.05;;;15.60;99.90;;;;;;4954910;29;20055;-76
2022/09/10 01:58:40;;;;;;;13.63;9.80;;;15.60;99.90;;;;;;4955650;28;20046;-76
2022/09/10 02:01:10;;;;;;;15.32;9.52;;;15.70;99.90;;;;;;4955622;29;20059;-76
2022/09/10 02:03:46;;;;;;;12.85;9.57;;;15.70;99.90;;;;;;4971332;28;20394;-76
2022/09/10 02:06:16;;;;;;;14.40;9.63;;;15.70;99.90;;;;;;4955327;29;20480;-76
2022/09/10 02:08:44;;;;;;;11.55;8.48;;;15.70;99.90;;;;;;4954763;29;20055;-76
2022/09/10 02:11:13;;;;;;;13.43;9.35;;;15.80;99.90;;;;;;4954405;29;20050;-76
2022/09/10 02:13:43;;;;;;;14.02;9.57;;;15.80;99.90;;;;;;4953608;28;20055;-76
2022/09/10 02:16:15;;;;;;;20.77;11.52;;;15.80;99.90;;;;;;4923123;29;20047;-76
2022/09/10 02:18:41;;;;;;;11.45;9.02;;;15.80;99.90;;;;;;4938477;29;20054;-76
2022/09/10 02:21:09;;;;;;;14.95;10.10;;;15.80;99.90;;;;;;4938191;29;20051;-75
2022/09/10 02:24:05;;;;;;;14.25;10.35;;;15.60;99.90;;;;;;4937765;29;20141;-76
2022/09/10 02:26:50;;;;;;;14.50;10.10;;;15.80;99.90;;;;;;4969775;28;20071;-76
2022/09/10 02:29:18;;;;;;;15.48;10.75;;;15.80;99.90;;;;;;4940573;29;20098;-76
2022/09/10 02:31:44;;;;;;;15.18;9.52;;;15.80;99.90;;;;;;4970420;28;20043;-76
2022/09/10 02:34:10;;;;;;;18.33;12.43;;;15.80;99.90;;;;;;4954221;29;20069;-76
2022/09/10 02:36:39;;;;;;;16.05;11.30;;;15.90;99.90;;;;;;4953670;29;20043;-76
2022/09/10 02:39:18;;;;;;;19.80;11.52;;;15.80;99.90;;;;;;4936223;29;20063;-76
2022/09/10 02:41:50;;;;;;;21.58;12.55;;;15.90;99.90;;;;;;4970094;28;20502;-77
2022/09/10 02:44:16;;;;;;;22.00;13.20;;;15.80;99.90;;;;;;4953922;29;20556;-76
2022/09/10 02:46:58;;;;;;;19.02;13.07;;;15.90;99.90;;;;;;4938374;29;20039;-76
2022/09/10 02:49:27;;;;;;;20.23;12.98;;;15.90;99.90;;;;;;4954484;29;20054;-76
2022/09/10 02:51:53;;;;;;;23.23;13.40;;;15.90;99.90;;;;;;4937723;29;20135;-76
2022/09/10 02:54:19;;;;;;;19.95;13.45;;;15.80;99.90;;;;;;4922420;29;20089;-76
2022/09/10 02:57:00;;;;;;;20.52;14.15;;;15.90;99.90;;;;;;4936668;29;20051;-76
2022/09/10 02:59:32;;;;;;;22.05;14.48;;;15.90;99.90;;;;;;4937276;29;20126;-75
2022/09/10 03:02:03;;;;;;;22.63;14.90;;;15.90;99.90;;;;;;4923540;29;20039;-76
2022/09/10 03:04:29;;;;;;;17.98;12.85;;;15.80;99.90;;;;;;4954615;28;20058;-76
2022/09/10 03:06:55;;;;;;;18.75;13.70;;;15.90;99.90;;;;;;4921937;29;20054;-77
2022/09/10 03:09:27;;;;;;;26.58;16.35;;;15.80;99.90;;;;;;4921942;29;20051;-76
2022/09/10 03:11:54;;;;;;;21.48;15.30;;;15.80;99.90;;;;;;4969556;28;20058;-76
2022/09/10 03:14:29;;;;;;;21.48;14.00;;;15.80;99.90;;;;;;4953758;29;20448;-77
2022/09/10 03:17:03;;;;;;;23.83;14.95;;;15.90;99.90;;;;;;4923596;29;20454;-76
2022/09/10 03:19:36;;;;;;;26.77;15.90;;;15.90;99.90;;;;;;4922486;29;20119;-76
2022/09/10 03:22:02;;;;;;;25.88;16.45;;;15.90;99.90;;;;;;4921254;29;20051;-75
2022/09/10 03:24:29;;;;;;;17.27;12.57;;;15.90;99.90;;;;;;4937380;29;20066;-76
2022/09/10 03:27:02;;;;;;;23.08;15.80;;;15.90;99.90;;;;;;4937117;29;20066;-77
2022/09/10 03:29:35;;;;;;;25.05;15.80;;;15.80;99.90;;;;;;4938690;29;20543;-76
2022/09/10 03:32:01;;;;;;;25.17;16.95;;;15.90;99.90;;;;;;4921922;29;20039;-76
2022/09/10 03:34:28;;;;;;;20.80;14.43;;;15.90;99.90;;;;;;4953033;29;20198;-76
2022/09/10 03:36:54;;;;;;;20.90;13.48;;;15.90;99.90;;;;;;4921608;29;20364;-77
2022/09/10 03:39:20;;;;;;;22.73;14.40;;;15.90;99.90;;;;;;4937428;29;20053;-76
2022/09/10 03:41:49;;;;;;;18.60;13.00;;;15.90;99.90;;;;;;4953509;29;20075;-76
2022/09/10 03:44:18;;;;;;;21.38;15.00;;;15.90;99.90;;;;;;4953169;29;20061;-76
2022/09/10 03:46:47;;;;;;;28.77;16.20;;;15.90;99.90;;;;;;4953511;29;20122;-77
2022/09/10 03:49:31;;;;;;;21.65;14.77;;;15.90;99.90;;;;;;4939256;29;20047;-75
2022/09/10 03:51:57;;;;;;;16.63;12.07;;;15.80;99.90;;;;;;4936974;29;20063;-76
2022/09/10 03:54:24;;;;;;;23.08;13.75;;;16.00;99.90;;;;;;4953139;29;20054;-76
2022/09/10 03:56:49;;;;;;;32.78;17.45;;;16.00;99.90;;;;;;4953221;29;20053;-77
2022/09/10 03:59:16;;;;;;;22.33;14.77;;;16.00;99.90;;;;;;4937824;29;20070;-78
2022/09/10 04:01:43;;;;;;;27.75;14.75;;;16.00;99.90;;;;;;4937441;29;20047;-76
2022/09/10 04:04:16;;;;;;;26.17;16.17;;;16.00;99.90;;;;;;4921410;29;20138;-77
2022/09/10 04:06:46;;;;;;;25.83;15.82;;;16.00;99.90;;;;;;4937397;29;20047;-77
2022/09/10 04:09:19;;;;;;;20.73;12.65;;;16.00;99.90;;;;;;4937557;29;20059;-76
2022/09/10 04:11:55;;;;;;;20.98;12.02;;;16.00;99.90;;;;;;4968024;28;20054;-76
2022/09/10 04:14:20;;;;;;;17.90;14.20;;;15.90;99.90;;;;;;4921150;29;20055;-76
2022/09/10 04:16:46;;;;;;;19.85;12.90;;;16.00;99.90;;;;;;4938344;29;20507;-77
2022/09/10 04:19:19;;;;;;;20.15;14.25;;;15.90;99.90;;;;;;4952813;29;20055;-75
2022/09/10 04:21:52;;;;;;;20.75;11.70;;;16.00;99.90;;;;;;4939229;29;20047;-77
2022/09/10 04:24:18;;;;;;;22.30;15.30;;;15.90;99.90;;;;;;4921437;29;20039;-76
2022/09/10 04:26:45;;;;;;;21.42;12.68;;;15.90;99.90;;;;;;4948267;29;20438;-76
2022/09/10 04:29:12;;;;;;;19.95;12.40;;;15.90;99.90;;;;;;4921254;29;20051;-76
2022/09/10 04:31:45;;;;;;;22.27;13.30;;;15.90;99.90;;;;;;4938395;29;20397;-76
2022/09/10 04:34:11;;;;;;;17.98;11.63;;;15.90;99.90;;;;;;4921552;29;20409;-76
2022/09/10 04:36:39;;;;;;;22.15;12.82;;;15.90;99.90;;;;;;4937914;29;20051;-76
2022/09/10 04:39:29;;;;;;;20.55;13.80;;;15.90;99.90;;;;;;4940850;29;20043;-76
2022/09/10 04:42:19;;;;;;;17.80;12.18;;;15.80;99.90;;;;;;4969929;28;20065;-76
2022/09/10 04:44:47;;;;;;;19.23;12.75;;;15.90;99.90;;;;;;4940347;29;20051;-75
2022/09/10 04:47:15;;;;;;;21.58;13.40;;;15.80;99.90;;;;;;4939924;29;20063;-76
2022/09/10 04:49:57;;;;;;;20.58;14.23;;;15.80;99.90;;;;;;4956090;29;20118;-77
2022/09/10 04:52:23;;;;;;;18.58;12.13;;;15.80;99.90;;;;;;4971771;28;20063;-75
2022/09/10 04:54:49;;;;;;;17.48;12.15;;;15.80;99.90;;;;;;4940231;29;20090;-76
2022/09/10 04:57:16;;;;;;;16.95;11.68;;;15.80;99.90;;;;;;4956774;28;20081;-77
2022/09/10 04:59:48;;;;;;;18.42;12.15;;;15.90;99.90;;;;;;4925683;29;20504;-75
2022/09/10 05:02:13;;;;;;;17.00;12.20;;;15.80;99.90;;;;;;4956801;28;20047;-76
2022/09/10 05:04:40;;;;;;;19.77;12.50;;;15.90;99.90;;;;;;4956898;28;20086;-76
2022/09/10 05:07:06;;;;;;;19.15;12.93;;;15.90;99.90;;;;;;4956139;29;20384;-77
2022/09/10 05:09:49;;;;;;;15.57;9.80;;;15.90;99.90;;;;;;4924655;29;20051;-76
2022/09/10 05:12:15;;;;;;;16.05;11.85;;;15.90;99.90;;;;;;4927569;29;20141;-76
2022/09/10 05:14:42;;;;;;;18.60;11.40;;;15.80;99.90;;;;;;4924767;29;20447;-77
2022/09/10 05:17:08;;;;;;;15.18;11.05;;;15.90;99.90;;;;;;4939387;29;20082;-76
2022/09/10 05:19:35;;;;;;;18.25;13.13;;;15.50;99.90;;;;;;4955342;29;20491;-76
2022/09/10 05:22:22;;;;;;;17.98;12.63;;;15.90;99.90;;;;;;4940529;29;20178;-76
2022/09/10 05:25:05;;;;;;;18.25;12.88;;;15.90;99.90;;;;;;4939647;29;20058;-77
2022/09/10 05:27:43;;;;;;;18.27;12.23;;;15.90;99.90;;;;;;4954289;29;20055;-76
2022/09/10 05:30:12;;;;;;;17.42;11.13;;;15.90;99.90;;;;;;4956796;28;20090;-76
2022/09/10 05:33:03;;;;;;;13.65;8.85;;;15.90;99.90;;;;;;4926258;29;20051;-75
2022/09/10 05:35:30;;;;;;;17.50;12.75;;;15.90;99.90;;;;;;4923509;29;20079;-77
2022/09/10 05:37:56;;;;;;;23.08;11.75;;;16.00;99.90;;;;;;4939056;29;20512;-76
2022/09/10 05:40:40;;;;;;;19.08;10.85;;;16.00;99.90;;;;;;4923215;29;20110;-75
2022/09/10 05:43:10;;;;;;;18.67;12.77;;;16.00;99.90;;;;;;4955463;29;20074;-76
2022/09/10 05:45:37;;;;;;;13.93;9.32;;;16.10;99.90;;;;;;4939853;29;20051;-76
2022/09/10 05:48:12;;;;;;;17.35;10.52;;;16.10;99.90;;;;;;4923241;29;20047;-76
2022/09/10 05:50:54;;;;;;;15.55;10.15;;;16.10;99.90;;;;;;4939959;28;20102;-76
2022/09/10 05:53:20;;;;;;;18.52;11.27;;;16.10;99.90;;;;;;4942391;28;20129;-77
2022/09/10 05:56:06;;;;;;;26.30;12.38;;;16.10;99.90;;;;;;4941974;28;20046;-77
2022/09/10 05:58:33;;;;;;;15.93;11.48;;;16.10;99.90;;;;;;4958190;28;20059;-75
2022/09/10 06:01:00;;;;;;;16.13;10.82;;;16.10;99.90;;;;;;4942049;28;20391;-77
2022/09/10 06:03:33;;;;;;;17.23;9.25;;;16.20;99.90;;;;;;4941798;28;20465;-76
2022/09/10 06:05:59;;;;;;;16.77;11.40;;;16.20;99.90;;;;;;4941059;28;20097;-76
2022/09/10 06:08:26;;;;;;;18.58;11.43;;;16.20;99.90;;;;;;4957780;28;20408;-76
2022/09/10 06:11:01;;;;;;;16.85;10.32;;;16.20;99.90;;;;;;4942746;28;20047;-76
2022/09/10 06:13:43;;;;;;;18.02;12.52;;;16.20;99.90;;;;;;4975129;28;20132;-76
2022/09/10 06:16:24;;;;;;;21.55;12.20;;;16.20;99.90;;;;;;4972449;28;20090;-76
2022/09/10 06:18:53;;;;;;;21.00;11.98;;;16.20;99.90;;;;;;4957332;28;20089;-76
2022/09/10 06:21:19;;;;;;;18.15;11.63;;;16.20;99.90;;;;;;4941346;28;20133;-75
2022/09/10 06:23:46;;;;;;;20.92;12.93;;;16.20;99.90;;;;;;4941857;28;20051;-76
2022/09/10 06:26:15;;;;;;;17.58;11.43;;;16.20;99.90;;;;;;4941107;28;20043;-76
2022/09/10 06:28:42;;;;;;;22.38;12.38;;;16.20;99.90;;;;;;4941846;28;20133;-76
2022/09/10 06:31:16;;;;;;;24.30;13.85;;;16.20;99.90;;;;;;4956072;28;20061;-75
2022/09/10 06:33:57;;;;;;;17.67;11.45;;;16.20;99.90;;;;;;4958584;28;20050;-76
2022/09/10 06:36:35;;;;;;;19.02;11.90;;;16.20;99.90;;;;;;4942379;28;20049;-76
2022/09/10 06:39:20;;;;;;;22.80;12.65;;;16.20;99.90;;;;;;4941430;28;20468;-76
2022/09/10 06:41:47;;;;;;;20.02;12.40;;;16.20;99.90;;;;;;4957508;28;20055;-78
2022/09/10 06:44:28;;;;;;;22.27;13.00;;;16.20;99.90;;;;;;4941654;28;20050;-76
2022/09/10 06:46:54;;;;;;;18.63;12.00;;;16.20;99.90;;;;;;4974424;28;20392;-75
2022/09/10 06:49:20;;;;;;;16.38;11.60;;;16.20;99.90;;;;;;4957028;28;20138;-77
2022/09/10 06:51:52;;;;;;;15.80;10.95;;;16.30;99.90;;;;;;4956435;28;20502;-77
2022/09/10 06:54:18;;;;;;;24.42;13.10;;;16.30;99.90;;;;;;4972911;28;20054;-76
2022/09/10 06:56:45;;;;;;;19.75;12.75;;;16.30;99.90;;;;;;4940659;28;20047;-76
2022/09/10 06:59:13;;;;;;;18.25;11.80;;;16.30;99.90;;;;;;4956029;28;20061;-75
2022/09/10 07:01:40;;;;;;;18.05;11.80;;;16.30;99.90;;;;;;4940639;28;20141;-75
2022/09/10 07:04:08;;;;;;;17.63;10.40;;;16.30;99.90;;;;;;4972647;28;20073;-75
2022/09/10 07:06:35;;;;;;;18.13;11.73;;;16.30;99.90;;;;;;4940381;28;20043;-75
2022/09/10 07:09:01;;;;;;;16.33;10.75;;;16.30;99.90;;;;;;4956260;28;20129;-75
2022/09/10 07:11:29;;;;;;;16.33;11.80;;;16.30;99.90;;;;;;4941110;28;20130;-75
2022/09/10 07:13:56;;;;;;;20.88;12.38;;;16.40;99.90;;;;;;4940750;28;20054;-75
2022/09/10 07:16:40;;;;;;;18.60;12.20;;;16.40;99.90;;;;;;4940322;28;20102;-75
2022/09/10 07:19:08;;;;;;;23.35;13.88;;;16.40;99.90;;;;;;4956270;28;20062;-75
2022/09/10 07:21:36;;;;;;;22.08;12.25;;;16.40;99.90;;;;;;4940817;28;20069;-75
2022/09/10 07:24:20;;;;;;;17.23;11.38;;;16.40;99.90;;;;;;4957157;28;20050;-75
2022/09/10 07:26:58;;;;;;;19.95;13.13;;;16.40;99.90;;;;;;4955880;28;20066;-75
2022/09/10 07:29:36;;;;;;;19.55;11.38;;;16.40;99.90;;;;;;4940678;28;20058;-75
2022/09/10 07:32:03;;;;;;;23.58;13.27;;;16.40;99.90;;;;;;4940699;28;20132;-75
2022/09/10 07:34:29;;;;;;;25.27;13.68;;;16.40;99.90;;;;;;4940982;28;20090;-76
2022/09/10 07:36:55;;;;;;;20.10;12.32;;;16.50;99.90;;;;;;4956192;28;20082;-76
2022/09/10 07:39:23;;;;;;;21.17;11.75;;;16.50;99.90;;;;;;4940415;28;20051;-75
2022/09/10 07:42:05;;;;;;;23.00;12.80;;;16.50;99.90;;;;;;4956948;28;20054;-76
2022/09/10 07:44:46;;;;;;;17.10;11.75;;;16.60;99.90;;;;;;4957600;28;20070;-75
2022/09/10 07:47:12;;;;;;;22.10;11.85;;;16.50;99.90;;;;;;4939673;28;20061;-75
2022/09/10 07:49:38;;;;;;;20.45;12.63;;;16.60;99.90;;;;;;4956271;28;20051;-76
2022/09/10 07:52:04;;;;;;;20.80;13.60;;;16.60;99.90;;;;;;4939835;28;20058;-76
2022/09/10 07:54:30;;;;;;;18.77;11.15;;;16.70;99.90;;;;;;4956628;28;20380;-76
2022/09/10 07:56:57;;;;;;;21.80;13.05;;;16.80;99.90;;;;;;4956319;28;20047;-75
2022/09/10 07:59:24;;;;;;;22.88;12.90;;;16.90;99.90;;;;;;4940799;28;20050;-75
2022/09/10 08:01:50;;;;;;;21.10;14.80;;;17.00;99.90;;;;;;4940738;28;20058;-76
2022/09/10 08:04:15;;;;;;;18.77;13.65;;;17.00;99.90;;;;;;4956696;28;20352;-75
2022/09/10 08:06:48;;;;;;;17.52;12.07;;;17.10;99.90;;;;;;4940047;28;20055;-76
2022/09/10 08:09:16;;;;;;;24.52;15.32;;;17.10;99.90;;;;;;4955596;28;20046;-75
2022/09/10 08:11:49;;;;;;;21.27;13.40;;;17.10;99.90;;;;;;4957707;28;20109;-75
2022/09/10 08:14:43;;;;;;;19.55;12.98;;;17.10;99.90;;;;;;4959767;28;20428;-75
2022/09/10 08:17:09;;;;;;;21.45;14.30;;;17.10;99.90;;;;;;4943629;28;20050;-75
2022/09/10 08:19:49;;;;;;;22.60;13.50;;;17.10;99.90;;;;;;4943749;28;20582;-76
2022/09/10 08:22:17;;;;;;;23.38;13.57;;;17.20;99.90;;;;;;4959928;28;20055;-75
2022/09/10 08:24:42;;;;;;;27.75;15.70;;;17.20;99.90;;;;;;4959602;28;20057;-75
2022/09/10 08:27:10;;;;;;;27.80;17.13;;;17.30;99.90;;;;;;4944119;28;20051;-76
2022/09/10 08:29:53;;;;;;;24.90;14.32;;;17.30;99.90;;;;;;4947827;28;20126;-75
2022/09/10 08:32:19;;;;;;;20.38;12.30;;;17.40;99.90;;;;;;4960231;28;20051;-76
2022/09/10 08:34:51;;;;;;;22.73;13.50;;;17.50;99.90;;;;;;4946344;28;20142;-80
2022/09/10 08:37:17;;;;;;;25.75;13.75;;;17.50;99.90;;;;;;4960673;28;20174;-78
2022/09/10 08:39:44;;;;;;;22.60;12.65;;;17.60;99.90;;;;;;4960607;28;20063;-77
2022/09/10 08:42:33;;;;;;;23.17;14.48;;;17.70;99.90;;;;;;4943354;28;20039;-77
2022/09/10 08:45:16;;;;;;;24.55;14.77;;;17.70;99.90;;;;;;4943535;28;20047;-77
2022/09/10 08:48:04;;;;;;;22.05;14.05;;;17.80;99.90;;;;;;4960082;28;20082;-77
2022/09/10 08:50:47;;;;;;;27.33;18.40;;;17.90;99.90;;;;;;4959819;28;20129;-77
2022/09/10 08:53:28;;;;;;;27.65;18.58;;;17.90;99.90;;;;;;4953482;29;20095;-76
2022/09/10 08:55:57;;;;;;;25.75;17.08;;;18.00;99.90;;;;;;4921354;29;20048;-77
2022/09/10 08:59:04;;;;;;;24.85;15.27;;;18.00;99.90;;;;;;4905953;29;20398;-77
2022/09/10 09:02:11;;;;;;;21.48;13.50;;;18.00;99.90;;;;;;4920805;29;20052;-77
2022/09/10 09:04:53;;;;;;;24.77;15.40;;;18.00;99.90;;;;;;4934364;29;20154;-76
2022/09/10 09:07:22;;;;;;;25.10;13.00;;;17.90;99.90;;;;;;4906335;29;20048;-77
2022/09/10 09:10:12;;;;;;;21.08;13.70;;;18.00;99.90;;;;;;4905495;29;20508;-77
2022/09/10 09:13:04;;;;;;;22.83;14.77;;;18.00;99.90;;;;;;4952355;29;20051;-77
2022/09/10 09:16:03;;;;;;;20.75;12.82;;;18.00;99.90;;;;;;4936184;29;20079;-75
2022/09/10 09:18:53;;;;;;;20.95;13.13;;;18.00;99.90;;;;;;4908973;29;20052;-76
2022/09/10 09:22:01;;;;;;;23.83;13.68;;;18.00;99.90;;;;;;4935724;29;20055;-76
2022/09/10 09:25:09;;;;;;;23.27;12.52;;;18.10;99.90;;;;;;4919303;29;20094;-75
2022/09/10 09:27:40;;;;;;;18.83;11.80;;;18.20;99.90;;;;;;4936924;29;20406;-76
2022/09/10 09:30:18;;;;;;;19.40;12.48;;;18.30;99.90;;;;;;4936091;29;20473;-76
2022/09/10 09:33:17;;;;;;;20.98;13.02;;;18.40;99.90;;;;;;4936569;29;20468;-75
2022/09/10 09:36:02;;;;;;;17.13;11.35;;;18.60;99.90;;;;;;4897211;29;20064;-74
2022/09/10 09:38:36;;;;;;;18.17;12.95;;;18.70;99.90;;;;;;4881928;29;20061;-76
2022/09/10 09:41:17;;;;;;;17.92;12.07;;;18.80;99.90;;;;;;4898335;29;20540;-76
2022/09/10 09:44:27;;;;;;;20.13;12.73;;;18.90;99.90;;;;;;4881670;29;20448;-76
2022/09/10 09:47:06;;;;;;;21.45;11.73;;;19.00;99.90;;;;;;4866663;29;20052;-76
2022/09/10 09:49:34;;;;;;;20.40;12.00;;;19.10;99.90;;;;;;4881760;29;20048;-76
2022/09/10 09:52:20;;;;;;;17.67;10.82;;;19.30;99.90;;;;;;4890834;29;20118;-76
2022/09/10 09:55:09;;;;;;;22.47;12.17;;;19.40;99.90;;;;;;4882800;29;20107;-75
2022/09/10 09:57:34;;;;;;;16.63;10.63;;;19.50;99.90;;;;;;4898285;29;20060;-77
2022/09/10 10:00:34;;;;;;;21.38;11.43;;;19.40;99.90;;;;;;4915415;29;20052;-77
2022/09/10 10:03:22;;;;;;;19.33;11.98;;;19.30;99.90;;;;;;4869210;29;20503;-77
2022/09/10 10:06:06;;;;;;;15.77;10.57;;;19.30;99.90;;;;;;4908257;29;20044;-75
2022/09/10 10:08:50;;;;;;;26.75;11.65;;;19.30;99.90;;;;;;4970887;28;20130;-76
2022/09/10 10:11:20;;;;;;;16.63;9.38;;;19.30;99.90;;;;;;4923621;29;20472;-76
2022/09/10 10:13:50;;;;;;;;;;;19.40;99.90;;;;;;4956106;29;20137;-77
2022/09/10 10:16:34;;;;;;;14.45;10.25;;;19.30;99.90;;;;;;4954395;29;20361;-76
2022/09/10 10:19:02;;;;;;;15.48;9.13;;;19.20;99.90;;;;;;4955218;29;20080;-76
2022/09/10 10:21:36;;;;;;;12.48;9.27;;;19.20;99.90;;;;;;4924293;29;20101;-77
2022/09/10 10:24:02;;;;;;;16.30;9.52;;;19.20;99.90;;;;;;4955137;29;20136;-75
2022/09/10 10:26:48;;;;;;;19.95;10.50;;;19.20;99.90;;;;;;4923329;29;20486;-77
2022/09/10 10:29:20;;;;;;;16.50;8.82;;;19.30;99.90;;;;;;4938876;29;20048;-76
2022/09/10 10:32:15;;;;;;;13.32;8.43;;;19.40;99.90;;;;;;4922621;29;20050;-77
2022/09/10 10:35:06;;;;;;;12.95;8.85;;;19.50;99.90;;;;;;4954981;28;20059;-81
2022/09/10 10:38:34;;;;;;;14.15;9.02;;;19.50;99.90;;;;;;4954581;29;20094;-76
2022/09/10 10:41:45;;;;;;;11.57;8.25;;;19.50;99.90;;;;;;4946115;29;20174;-76
2022/09/10 10:44:36;;;;;;;10.80;7.78;;;19.60;99.90;;;;;;4937200;29;20058;-77
2022/09/10 10:47:29;;;;;;;9.98;7.55;;;19.70;99.90;;;;;;4953921;29;20047;-76
2022/09/10 10:50:32;;;;;;;9.65;6.95;;;19.80;99.90;;;;;;4954190;29;20151;-76
2022/09/10 10:53:19;;;;;;;10.77;7.35;;;20.00;99.90;;;;;;4973265;28;20050;-76
2022/09/10 10:56:28;;;;;;;9.98;7.75;;;20.00;99.90;;;;;;4957144;28;20058;-76
2022/09/10 10:59:43;;;;;;;14.43;9.05;;;20.00;99.90;;;;;;4956774;28;20053;-77
2022/09/10 11:02:39;;;;;;;11.00;8.02;;;20.00;99.90;;;;;;4957179;28;20137;-77
2022/09/10 11:05:56;;;;;;;14.68;9.65;;;20.20;99.90;;;;;;4956814;28;20109;-75
2022/09/10 11:09:00;;;;;;;14.52;8.73;;;20.20;99.90;;;;;;4925798;28;20050;-77
2022/09/10 11:12:11;;;;;;;16.70;9.10;;;20.40;99.90;;;;;;4973343;28;20057;-77
2022/09/10 11:14:59;;;;;;;15.90;9.02;;;20.50;99.90;;;;;;4956890;28;20054;-76
2022/09/10 11:18:16;;;;;;;15.68;9.40;;;20.60;99.90;;;;;;4972661;28;20074;-77
2022/09/10 11:21:28;;;;;;;13.80;7.95;;;20.60;99.90;;;;;;4972503;28;20057;-78
2022/09/10 11:24:07;;;;;;;11.65;7.68;;;20.60;99.90;;;;;;4972334;28;20112;-76
2022/09/10 11:26:55;;;;;;;14.30;8.43;;;20.70;99.90;;;;;;4956518;28;20048;-77
2022/09/10 11:29:48;;;;;;;15.10;9.00;;;20.70;99.90;;;;;;4956460;28;20059;-78
2022/09/10 11:32:41;;;;;;;11.82;7.35;;;20.80;99.90;;;;;;4972428;28;20093;-77
2022/09/10 11:35:39;;;;;;;10.68;7.57;;;21.00;99.90;;;;;;4955963;28;20047;-76
2022/09/10 11:38:39;;;;;;;8.68;6.00;;;20.70;99.90;;;;;;4956083;28;20486;-76
2022/09/10 11:41:32;;;;;;;12.45;8.32;;;20.70;99.90;;;;;;4973174;28;20384;-76
2022/09/10 11:44:23;;;;;;;11.13;7.18;;;20.80;99.90;;;;;;4940799;28;20062;-77
2022/09/10 11:47:25;;;;;;;9.18;6.68;;;20.90;99.90;;;;;;4960046;28;20419;-75
2022/09/10 11:50:00;;;;;;;10.63;8.07;;;21.00;99.90;;;;;;4944057;28;20538;-76
2022/09/10 11:52:28;;;;;;;10.20;7.80;;;20.70;99.90;;;;;;4956397;29;20082;-79
2022/09/10 11:54:56;;;;;;;10.93;7.40;;;20.70;99.90;;;;;;4957224;28;20062;-77
2022/09/10 11:58:10;;;;;;;10.60;6.22;;;20.60;99.90;;;;;;4972985;28;20106;-74
2022/09/10 12:01:15;;;;;;;11.13;6.68;;;20.50;99.90;;;;;;4970280;28;20086;-76
2022/09/10 12:04:20;;;;;;;9.80;7.53;;;20.60;99.90;;;;;;4956851;29;20118;-78
2022/09/10 12:07:13;;;;;;;11.95;8.40;;;20.80;99.90;;;;;;4956778;29;20143;-76
2022/09/10 12:10:04;;;;;;;15.38;8.02;;;20.70;99.90;;;;;;4941233;29;20102;-79
2022/09/10 12:12:37;;;;;;;14.43;8.77;;;20.70;99.90;;;;;;4973019;28;20055;-77
2022/09/10 12:15:33;;;;;;;;;;;20.60;99.90;;;;;;4958533;29;20358;-77
2022/09/10 12:18:05;;;;;;;10.40;7.68;;;20.50;99.90;;;;;;4956788;29;19922;-76
2022/09/10 12:20:38;;;;;;;10.70;7.18;;;20.60;99.90;;;;;;4940510;29;20424;-77
2022/09/10 12:23:36;;;;;;;12.52;8.20;;;20.70;99.90;;;;;;4972919;28;20427;-77
2022/09/10 12:26:18;;;;;;;14.75;8.73;;;20.90;99.90;;;;;;4957538;29;20081;-76
2022/09/10 12:28:47;;;;;;;13.07;8.20;;;21.20;99.90;;;;;;4925353;29;20083;-77
2022/09/10 12:31:15;;;;;;;12.23;9.48;;;21.20;99.90;;;;;;4972205;28;20089;-78
2022/09/10 12:33:49;;;;;;;11.60;7.80;;;21.30;99.90;;;;;;4972604;28;20098;-77
2022/09/10 12:36:57;;;;;;;11.10;7.85;;;21.40;99.90;;;;;;4940126;29;20047;-76
2022/09/10 12:39:43;;;;;;;16.90;9.45;;;21.40;99.90;;;;;;4932883;29;20106;-78
2022/09/10 12:42:28;;;;;;;15.07;9.40;;;21.10;99.90;;;;;;4940894;29;20103;-78
2022/09/10 12:44:55;;;;;;;11.90;8.60;;;21.10;99.90;;;;;;4925581;29;20055;-76
2022/09/10 12:47:49;;;;;;;10.80;8.13;;;21.00;99.90;;;;;;4956963;29;20109;-78
2022/09/10 12:50:50;;;;;;;12.85;8.63;;;21.10;99.90;;;;;;4957193;28;20474;-76
2022/09/10 12:53:55;;;;;;;12.52;7.95;;;20.90;99.90;;;;;;4955418;29;20047;-77
2022/09/10 12:56:44;;;;;;;9.95;7.50;;;21.00;99.90;;;;;;4950369;28;20488;-76
2022/09/10 12:59:17;;;;;;;11.57;8.48;;;20.80;99.90;;;;;;4956342;29;20062;-78
2022/09/10 13:01:50;;;;;;;10.85;8.55;;;20.90;99.90;;;;;;4940275;29;20464;-77
2022/09/10 13:04:36;;;;;;;8.88;6.78;;;20.90;99.90;;;;;;4924777;29;20520;-78
2022/09/10 13:07:22;;;;;;;13.20;7.95;;;20.90;99.90;;;;;;4972135;28;20046;-74
2022/09/10 13:10:04;;;;;;;10.30;7.03;;;21.00;99.90;;;;;;4956786;29;20109;-74
2022/09/10 13:12:47;;;;;;;9.65;6.50;;;21.00;99.90;;;;;;4957238;28;20047;-76
2022/09/10 13:15:26;;;;;;;11.90;6.78;;;21.00;99.90;;;;;;4924149;29;20052;-77
2022/09/10 13:17:53;;;;;;;9.43;6.43;;;21.30;99.90;;;;;;4956523;29;20113;-77
2022/09/10 13:20:19;;;;;;;10.75;5.63;;;21.40;99.90;;;;;;4955060;29;20086;-77
2022/09/10 13:23:05;;;;;;;9.52;7.30;;;21.70;99.90;;;;;;4971595;28;20440;-76
2022/09/10 13:25:39;;;;;;;9.23;6.32;;;22.00;99.90;;;;;;4940425;29;20079;-77
2022/09/10 13:28:45;;;;;;;10.60;7.30;;;22.30;99.90;;;;;;4971085;28;20109;-76